Aviation Digital Data Service (ADDS)

Output produced by METARs form (0537 UTC 11 December 2017)
found at http://www.aviationweather.gov/adds/metars/
 
KSIF 110525Z AUTO 00000KT 10SM CLR M04/M07 A3012 RMK AO2 T10371067